Time;durP1;ratioP1;P1;durP2;ratioP2;P2;SDS_P1;SDS_P2;PMS_P1;PMS_P2;Temp;Humidity;BMP_temperature;BMP_pressure;BME280_temperature;BME280_humidity;BME280_pressure;Samples;Min_cycle;Max_cycle;Signal;HPM_P1;HPM_P2
2023/04/09 00:01:12;;;;;;;17.27;9.95;;;11.70;56.20;;;;;;4966279;28;20470;-46
2023/04/09 00:03:40;;;;;;;14.70;9.52;;;11.70;56.20;;;;;;4963453;28;20054;-47
2023/04/09 00:06:07;;;;;;;13.90;8.90;;;11.70;56.10;;;;;;4964144;28;20050;-46
2023/04/09 00:08:35;;;;;;;15.45;9.95;;;11.70;56.10;;;;;;4965566;28;20478;-50
2023/04/09 00:11:04;;;;;;;15.65;10.38;;;11.70;56.10;;;;;;4964752;28;20054;-52
2023/04/09 00:13:31;;;;;;;15.80;9.68;;;11.70;56.10;;;;;;4962766;28;20063;-45
2023/04/09 00:15:59;;;;;;;15.13;9.85;;;11.70;56.00;;;;;;4963623;28;20066;-45
2023/04/09 00:18:26;;;;;;;13.48;9.30;;;11.70;56.10;;;;;;4965113;28;20081;-51
2023/04/09 00:20:53;;;;;;;15.45;9.13;;;11.70;56.10;;;;;;4964348;28;20065;-47
2023/04/09 00:23:20;;;;;;;14.43;9.77;;;11.70;56.10;;;;;;4964797;28;20046;-53
2023/04/09 00:25:48;;;;;;;16.42;10.43;;;11.70;56.00;;;;;;4964198;28;20079;-50
2023/04/09 00:28:16;;;;;;;14.57;9.45;;;11.70;56.00;;;;;;4964151;28;20411;-51
2023/04/09 00:30:44;;;;;;;16.77;10.30;;;11.70;56.00;;;;;;4964422;28;20047;-53
2023/04/09 00:33:11;;;;;;;19.60;10.95;;;11.70;56.00;;;;;;4964498;28;20061;-47
2023/04/09 00:35:38;;;;;;;17.98;10.57;;;11.70;56.00;;;;;;4965491;28;20051;-47
2023/04/09 00:38:05;;;;;;;17.13;10.85;;;11.70;56.00;;;;;;4964036;28;20051;-46
2023/04/09 00:40:33;;;;;;;18.50;12.18;;;11.70;56.10;;;;;;4964328;28;20487;-47
2023/04/09 00:43:01;;;;;;;18.45;12.45;;;11.70;56.10;;;;;;4963867;28;20054;-46
2023/04/09 00:45:29;;;;;;;20.25;12.88;;;11.70;56.10;;;;;;4964136;28;20065;-46
2023/04/09 00:47:56;;;;;;;22.00;14.27;;;11.70;56.10;;;;;;4963985;28;20063;-47
2023/04/09 00:50:24;;;;;;;23.00;15.15;;;11.70;56.10;;;;;;4962468;28;20074;-48
2023/04/09 00:52:51;;;;;;;21.88;14.52;;;11.70;56.10;;;;;;4963958;28;20043;-53
2023/04/09 00:55:19;;;;;;;18.27;12.98;;;11.70;56.10;;;;;;4964834;28;20521;-48
2023/04/09 00:57:46;;;;;;;19.60;12.60;;;11.70;56.00;;;;;;4965725;28;20054;-47
2023/04/09 01:00:16;;;;;;;15.95;10.90;;;11.70;56.10;;;;;;4964145;28;20050;-52
2023/04/09 01:05:19;;;;;;;15.70;10.00;;;11.70;55.90;;;;;;5011866;28;20144;-48
2023/04/09 01:07:59;;;;;;;13.60;9.43;;;11.80;56.00;;;;;;5019287;28;20049;-51
2023/04/09 01:10:32;;;;;;;15.55;10.27;;;11.70;55.90;;;;;;5019901;28;20050;-50
2023/04/09 01:13:07;;;;;;;14.38;9.65;;;11.70;55.90;;;;;;5016566;28;20053;-46
2023/04/09 01:15:40;;;;;;;14.40;10.00;;;11.70;55.90;;;;;;5020479;28;20049;-45
2023/04/09 01:18:11;;;;;;;15.05;9.02;;;11.70;55.90;;;;;;5021410;28;20053;-48
2023/04/09 01:20:43;;;;;;;18.58;10.73;;;11.70;55.80;;;;;;5015352;28;20053;-45
2023/04/09 01:23:19;;;;;;;16.33;10.52;;;11.70;55.80;;;;;;5020371;28;20262;-47
2023/04/09 01:26:01;;;;;;;17.02;10.88;;;11.70;55.70;;;;;;5022368;28;20535;-48
2023/04/09 01:28:33;;;;;;;16.77;9.70;;;11.70;55.70;;;;;;5018743;28;20440;-46
2023/04/09 01:31:03;;;;;;;16.13;10.38;;;11.70;55.70;;;;;;5021417;28;21227;-46
2023/04/09 01:33:32;;;;;;;17.10;10.80;;;11.70;55.70;;;;;;5020182;28;20061;-48
2023/04/09 01:36:04;;;;;;;14.75;9.30;;;11.70;55.70;;;;;;5019970;28;20053;-46
2023/04/09 01:38:32;;;;;;;16.83;10.13;;;11.70;55.80;;;;;;5012318;28;21274;-49
2023/04/09 01:41:00;;;;;;;17.90;10.13;;;11.70;55.70;;;;;;5021239;28;20045;-45
2023/04/09 01:43:30;;;;;;;15.55;8.80;;;11.70;55.70;;;;;;5019126;28;20076;-45
2023/04/09 01:46:00;;;;;;;16.02;10.20;;;11.70;55.80;;;;;;5020759;28;20527;-46
2023/04/09 01:48:29;;;;;;;16.52;9.70;;;11.70;55.70;;;;;;5019058;28;20065;-48
2023/04/09 01:50:57;;;;;;;15.02;10.20;;;11.70;55.70;;;;;;5019734;28;20049;-47
2023/04/09 01:53:27;;;;;;;14.00;9.10;;;11.70;55.70;;;;;;5016636;28;20065;-47
2023/04/09 01:55:55;;;;;;;14.95;9.88;;;11.70;55.70;;;;;;5019207;28;20049;-48
2023/04/09 01:58:22;;;;;;;13.77;8.98;;;11.70;55.80;;;;;;5020251;28;20414;-45
2023/04/09 02:00:56;;;;;;;13.48;8.50;;;11.70;55.70;;;;;;5022095;28;20067;-48
2023/04/09 02:03:25;;;;;;;12.38;8.68;;;11.70;55.70;;;;;;5018302;28;20049;-46
2023/04/09 02:05:56;;;;;;;14.15;9.35;;;11.70;55.70;;;;;;5019075;28;20052;-45
2023/04/09 02:08:25;;;;;;;15.32;9.90;;;11.70;55.70;;;;;;5021617;28;20057;-43
2023/04/09 02:10:56;;;;;;;13.50;8.98;;;11.60;55.60;;;;;;5022164;28;20502;-44
2023/04/09 02:13:26;;;;;;;13.10;8.85;;;11.60;55.80;;;;;;5017255;28;20072;-45
2023/04/09 02:15:56;;;;;;;15.25;9.80;;;11.60;55.50;;;;;;5020279;28;20052;-42
2023/04/09 02:18:27;;;;;;;12.70;8.77;;;11.60;55.50;;;;;;5019564;28;20053;-45
2023/04/09 02:20:55;;;;;;;16.85;9.32;;;11.60;55.50;;;;;;5018756;28;20054;-43
2023/04/09 02:23:23;;;;;;;14.15;9.13;;;11.60;55.50;;;;;;5017729;28;20052;-47
2023/04/09 02:25:51;;;;;;;16.73;9.82;;;11.60;55.50;;;;;;5021998;28;20045;-43
2023/04/09 02:28:20;;;;;;;15.10;9.15;;;11.50;55.30;;;;;;5019985;28;20508;-48
2023/04/09 02:30:47;;;;;;;13.90;9.02;;;11.50;55.30;;;;;;5018967;28;20409;-46
2023/04/09 02:33:16;;;;;;;16.70;9.23;;;11.50;55.30;;;;;;5018967;28;20053;-47
2023/04/09 02:35:43;;;;;;;14.73;9.63;;;11.50;55.30;;;;;;5018909;28;20052;-48
2023/04/09 02:38:12;;;;;;;17.55;10.32;;;11.50;55.30;;;;;;5019793;28;20053;-45
2023/04/09 02:40:40;;;;;;;16.55;10.27;;;11.40;55.20;;;;;;5020416;28;20049;-46
2023/04/09 02:43:08;;;;;;;15.65;9.38;;;11.40;55.20;;;;;;5018290;28;20049;-44
2023/04/09 02:45:35;;;;;;;15.75;10.38;;;11.40;55.20;;;;;;5020440;28;20512;-45
2023/04/09 02:48:03;;;;;;;14.88;9.18;;;11.30;55.10;;;;;;5019012;28;20049;-45
2023/04/09 02:50:31;;;;;;;13.52;8.85;;;11.30;55.10;;;;;;5017699;28;20382;-45
2023/04/09 02:52:58;;;;;;;14.00;8.80;;;11.30;55.00;;;;;;5019847;28;20485;-46
2023/04/09 02:55:26;;;;;;;13.20;8.43;;;11.30;55.00;;;;;;5016943;28;20057;-45
2023/04/09 02:57:53;;;;;;;14.18;8.70;;;11.20;55.00;;;;;;5017390;28;20064;-43
2023/04/09 03:00:20;;;;;;;14.65;8.73;;;11.20;54.90;;;;;;5019762;28;20060;-44
2023/04/09 03:06:11;;;;;;;16.10;9.52;;;11.10;54.80;;;;;;5003276;28;20044;-41
2023/04/09 03:08:38;;;;;;;17.00;9.65;;;11.00;54.80;;;;;;5019021;28;20049;-45
2023/04/09 03:11:05;;;;;;;16.00;9.00;;;11.10;54.80;;;;;;5019822;28;20056;-42
2023/04/09 03:13:32;;;;;;;18.17;9.93;;;10.90;54.80;;;;;;5015514;28;20485;-44
2023/04/09 03:15:59;;;;;;;13.65;8.75;;;10.90;54.90;;;;;;5017275;28;20057;-45
2023/04/09 03:18:26;;;;;;;13.60;8.30;;;10.90;55.00;;;;;;5019728;28;20057;-42
2023/04/09 03:20:54;;;;;;;14.52;8.93;;;10.90;55.10;;;;;;5021612;28;20053;-46
2023/04/09 03:23:22;;;;;;;15.98;9.35;;;10.80;55.20;;;;;;5022960;28;20053;-44
2023/04/09 03:25:59;;;;;;;13.85;9.05;;;10.80;55.30;;;;;;5021028;28;20045;-44
2023/04/09 03:28:26;;;;;;;16.73;10.20;;;10.80;55.30;;;;;;5019152;28;20057;-46
2023/04/09 03:30:53;;;;;;;14.52;9.85;;;10.80;55.40;;;;;;5016807;28;20041;-46
2023/04/09 03:33:21;;;;;;;18.33;10.65;;;10.70;55.40;;;;;;5013129;28;20053;-47
2023/04/09 03:35:48;;;;;;;14.57;9.63;;;10.70;55.50;;;;;;5018111;28;20049;-44
2023/04/09 03:38:15;;;;;;;16.65;9.98;;;10.70;55.60;;;;;;5020991;28;20057;-44
2023/04/09 03:40:43;;;;;;;15.95;10.70;;;10.70;55.60;;;;;;5021855;28;20045;-47
2023/04/09 03:43:10;;;;;;;17.92;11.13;;;10.70;55.60;;;;;;5021489;28;20516;-47
2023/04/09 03:45:38;;;;;;;17.48;10.65;;;10.70;55.60;;;;;;5021676;28;20489;-45
2023/04/09 03:48:05;;;;;;;18.90;11.32;;;10.70;55.60;;;;;;5018152;28;20053;-48
2023/04/09 03:50:38;;;;;;;16.65;10.52;;;10.70;55.60;;;;;;5016347;28;20719;-44
2023/04/09 03:53:05;;;;;;;18.05;11.23;;;10.70;55.60;;;;;;5020991;28;20069;-50
2023/04/09 03:55:32;;;;;;;16.90;10.93;;;10.70;55.60;;;;;;5021289;28;20060;-45
2023/04/09 03:58:01;;;;;;;18.73;11.75;;;10.70;55.50;;;;;;5020580;28;20056;-46
2023/04/09 04:00:28;;;;;;;18.67;11.55;;;10.70;55.50;;;;;;5020257;28;20045;-49
2023/04/09 04:02:55;;;;;;;15.85;10.00;;;10.70;55.60;;;;;;5021515;28;20064;-44
2023/04/09 04:05:24;;;;;;;16.30;9.82;;;10.70;55.60;;;;;;5017090;28;20058;-45
2023/04/09 04:07:51;;;;;;;17.75;10.20;;;10.60;55.60;;;;;;5021298;28;20080;-46
2023/04/09 04:10:18;;;;;;;14.57;9.38;;;10.70;55.70;;;;;;5020260;28;20061;-46
2023/04/09 04:12:46;;;;;;;14.88;9.73;;;10.60;55.60;;;;;;5020071;28;20057;-46
2023/04/09 04:15:14;;;;;;;14.63;9.30;;;10.70;55.70;;;;;;5017858;28;20420;-45
2023/04/09 04:17:41;;;;;;;14.38;9.00;;;10.70;55.80;;;;;;5020348;28;20061;-45
2023/04/09 04:20:09;;;;;;;14.70;8.48;;;10.70;55.80;;;;;;5017111;28;21124;-45
2023/04/09 04:22:37;;;;;;;14.52;9.52;;;10.70;55.80;;;;;;5017870;28;20053;-45
2023/04/09 04:25:04;;;;;;;15.27;9.20;;;10.70;55.80;;;;;;5018943;28;20057;-48
2023/04/09 04:27:31;;;;;;;14.40;8.82;;;10.70;55.80;;;;;;5020479;28;20080;-46
2023/04/09 04:30:00;;;;;;;14.75;8.90;;;10.70;55.80;;;;;;5014760;28;20061;-49
2023/04/09 04:32:29;;;;;;;13.32;8.18;;;10.70;55.90;;;;;;5015328;28;20053;-44
2023/04/09 04:34:56;;;;;;;14.93;9.32;;;10.70;55.70;;;;;;5017559;28;20489;-45
2023/04/09 04:37:23;;;;;;;12.50;8.45;;;10.70;55.70;;;;;;5019028;28;20056;-48
2023/04/09 04:39:51;;;;;;;14.43;9.30;;;10.70;55.70;;;;;;5016740;28;20521;-44
2023/04/09 04:42:18;;;;;;;13.45;8.48;;;10.70;55.70;;;;;;5016727;28;20068;-45
2023/04/09 04:44:45;;;;;;;13.10;8.30;;;10.70;55.70;;;;;;5019994;28;20057;-44
2023/04/09 04:47:12;;;;;;;15.15;8.82;;;10.70;55.70;;;;;;5022833;28;20057;-49
2023/04/09 04:49:41;;;;;;;14.05;9.45;;;10.70;55.70;;;;;;5020857;28;20053;-45
2023/04/09 04:52:08;;;;;;;13.40;8.70;;;10.70;55.60;;;;;;5019410;28;20076;-50
2023/04/09 04:54:35;;;;;;;14.75;8.93;;;10.70;55.60;;;;;;5020004;28;20061;-48
2023/04/09 04:57:02;;;;;;;13.50;8.35;;;10.70;55.50;;;;;;5021142;28;20058;-45
2023/04/09 04:59:30;;;;;;;15.85;9.05;;;10.70;55.50;;;;;;5022151;28;20060;-46
2023/04/09 05:01:57;;;;;;;13.63;8.45;;;10.70;55.50;;;;;;5020259;28;20057;-47
2023/04/09 05:04:25;;;;;;;16.50;9.90;;;10.70;55.50;;;;;;5020078;28;20124;-47
2023/04/09 05:06:53;;;;;;;13.85;8.30;;;10.70;55.40;;;;;;5022155;28;20061;-46
2023/04/09 05:09:20;;;;;;;18.70;11.32;;;10.70;55.40;;;;;;5022983;28;20049;-44
2023/04/09 05:11:48;;;;;;;16.55;10.48;;;10.70;55.40;;;;;;5019889;28;20041;-46
2023/04/09 05:14:15;;;;;;;13.85;8.75;;;10.70;55.40;;;;;;5021227;28;20401;-48
2023/04/09 05:16:42;;;;;;;12.85;8.68;;;10.70;55.40;;;;;;5020227;28;20053;-48
2023/04/09 05:19:09;;;;;;;16.85;8.93;;;10.60;55.40;;;;;;5017483;28;20501;-47
2023/04/09 05:21:37;;;;;;;15.38;9.57;;;10.60;55.30;;;;;;5019257;28;20504;-46
2023/04/09 05:24:06;;;;;;;17.70;9.50;;;10.60;55.30;;;;;;5020140;28;20045;-48
2023/04/09 05:26:33;;;;;;;14.02;8.82;;;10.60;55.30;;;;;;5020912;28;20053;-49
2023/04/09 05:29:00;;;;;;;16.50;9.60;;;10.60;55.40;;;;;;5018877;28;20421;-47
2023/04/09 05:31:27;;;;;;;18.10;9.63;;;10.60;55.30;;;;;;5021765;28;20049;-45
2023/04/09 05:33:54;;;;;;;15.52;9.32;;;10.60;55.30;;;;;;5017159;28;20060;-44
2023/04/09 05:36:22;;;;;;;14.80;9.35;;;10.60;55.30;;;;;;5021710;28;20057;-45
2023/04/09 05:38:49;;;;;;;34.95;17.65;;;10.60;55.40;;;;;;5019301;28;20061;-45
2023/04/09 05:41:17;;;;;;;33.50;16.52;;;10.60;55.40;;;;;;5020859;28;20053;-47
2023/04/09 05:43:44;;;;;;;46.88;22.92;;;10.70;55.50;;;;;;5018300;28;20408;-47
2023/04/09 05:46:12;;;;;;;24.98;13.73;;;10.60;55.40;;;;;;5020577;28;20049;-46
2023/04/09 05:48:39;;;;;;;19.35;11.20;;;10.70;55.50;;;;;;5019523;28;20062;-46
2023/04/09 05:51:06;;;;;;;15.10;9.43;;;10.70;55.50;;;;;;5021524;28;20080;-46
2023/04/09 05:53:34;;;;;;;16.83;9.30;;;10.70;55.50;;;;;;5019093;28;20045;-44
2023/04/09 05:56:01;;;;;;;19.33;10.50;;;10.70;55.50;;;;;;5018188;28;20057;-47
2023/04/09 05:58:30;;;;;;;16.60;9.27;;;10.70;55.60;;;;;;5020874;28;20064;-47
2023/04/09 06:00:57;;;;;;;15.35;8.73;;;10.70;55.60;;;;;;5017796;28;20061;-48
2023/04/09 06:03:24;;;;;;;19.42;10.40;;;10.70;55.50;;;;;;5017138;28;20050;-46
2023/04/09 06:05:52;;;;;;;16.17;9.82;;;10.80;55.50;;;;;;5021459;28;20076;-51
2023/04/09 06:08:19;;;;;;;14.32;9.25;;;10.80;55.50;;;;;;5018938;28;20049;-48
2023/04/09 06:10:46;;;;;;;18.48;9.82;;;10.80;55.40;;;;;;5021874;28;20064;-46
2023/04/09 06:13:13;;;;;;;18.70;10.40;;;10.80;55.40;;;;;;5015161;28;20420;-47
2023/04/09 06:15:42;;;;;;;14.73;9.27;;;10.80;55.40;;;;;;5017233;28;20136;-46
2023/04/09 06:18:09;;;;;;;14.52;9.38;;;10.80;55.30;;;;;;5019441;28;20157;-47
2023/04/09 06:20:36;;;;;;;15.13;9.20;;;10.90;55.50;;;;;;5021167;28;20405;-46
2023/04/09 06:23:03;;;;;;;17.02;10.30;;;10.90;55.40;;;;;;5018212;28;20057;-45
2023/04/09 06:25:31;;;;;;;18.17;10.70;;;10.90;55.40;;;;;;5017831;28;20065;-45
2023/04/09 06:27:58;;;;;;;19.17;11.05;;;10.90;55.20;;;;;;5018607;28;20516;-46
2023/04/09 06:30:25;;;;;;;16.55;10.57;;;11.00;55.30;;;;;;5020836;28;20064;-49
2023/04/09 06:32:54;;;;;;;18.85;10.95;;;11.00;55.30;;;;;;5017251;28;20050;-44
2023/04/09 06:35:21;;;;;;;18.70;11.27;;;11.00;55.30;;;;;;5019349;28;20515;-46
2023/04/09 06:37:49;;;;;;;17.00;10.70;;;11.10;55.40;;;;;;5018240;28;20135;-47
2023/04/09 06:40:16;;;;;;;20.88;11.88;;;11.10;55.40;;;;;;5016410;28;20065;-47
2023/04/09 06:42:43;;;;;;;19.77;12.32;;;11.20;55.50;;;;;;5018892;28;20061;-45
2023/04/09 06:45:11;;;;;;;19.67;12.88;;;11.20;55.60;;;;;;5020398;28;20057;-46
2023/04/09 06:47:38;;;;;;;22.63;13.63;;;11.30;55.70;;;;;;5017606;28;20576;-47
2023/04/09 06:50:09;;;;;;;20.20;12.55;;;11.30;55.40;;;;;;5016519;28;20064;-49
2023/04/09 06:52:36;;;;;;;19.95;12.55;;;11.40;55.30;;;;;;5019394;28;20586;-48
2023/04/09 06:55:04;;;;;;;19.67;12.07;;;11.50;55.40;;;;;;5018774;28;20064;-48
2023/04/09 06:57:31;;;;;;;24.35;13.55;;;11.50;55.30;;;;;;5014983;28;20419;-46
2023/04/09 06:59:58;;;;;;;20.27;12.68;;;11.60;55.20;;;;;;5015073;28;20056;-48
2023/04/09 07:02:26;;;;;;;23.10;12.55;;;11.60;54.90;;;;;;5018237;28;20057;-44
2023/04/09 07:04:53;;;;;;;22.58;14.23;;;11.70;54.60;;;;;;5018853;28;20065;-47
2023/04/09 07:07:22;;;;;;;23.25;13.68;;;11.70;54.20;;;;;;5018427;28;20061;-46
2023/04/09 07:09:50;;;;;;;22.02;12.70;;;11.80;53.80;;;;;;5016857;28;20056;-47
2023/04/09 07:12:26;;;;;;;20.83;12.48;;;11.80;53.70;;;;;;5015804;28;21299;-48
2023/04/09 07:14:57;;;;;;;19.70;11.93;;;11.80;53.40;;;;;;5018074;28;20042;-47
2023/04/09 07:17:24;;;;;;;22.98;13.25;;;11.90;53.60;;;;;;5017292;28;20060;-50
2023/04/09 07:19:52;;;;;;;22.40;13.23;;;11.90;53.40;;;;;;5017493;28;20489;-45
2023/04/09 07:22:22;;;;;;;20.98;13.32;;;12.00;53.40;;;;;;5017229;28;20037;-49
2023/04/09 07:24:52;;;;;;;19.27;12.00;;;12.00;53.40;;;;;;5015995;28;20052;-45
2023/04/09 07:27:20;;;;;;;21.58;11.93;;;12.10;53.50;;;;;;5018714;28;20072;-44
2023/04/09 07:29:47;;;;;;;19.85;12.32;;;12.10;53.70;;;;;;5016083;28;20079;-45
2023/04/09 07:32:14;;;;;;;19.67;12.02;;;12.10;53.80;;;;;;5015501;28;20072;-43
2023/04/09 07:34:42;;;;;;;24.02;13.07;;;12.20;53.90;;;;;;5018958;28;20062;-44
2023/04/09 07:37:10;;;;;;;20.50;12.48;;;12.20;53.60;;;;;;5018376;28;20038;-44
2023/04/09 07:39:41;;;;;;;27.05;15.10;;;12.30;53.60;;;;;;5019409;28;20052;-43
2023/04/09 07:42:08;;;;;;;25.77;14.30;;;12.30;53.70;;;;;;5012921;28;20528;-48
2023/04/09 07:44:36;;;;;;;20.33;13.18;;;12.40;53.60;;;;;;5019485;28;20057;-47
2023/04/09 07:47:04;;;;;;;20.95;12.10;;;12.40;53.70;;;;;;5017582;28;20457;-45
2023/04/09 07:49:31;;;;;;;18.50;11.68;;;12.50;53.70;;;;;;5013224;28;20061;-46
2023/04/09 07:51:59;;;;;;;27.05;14.02;;;12.50;53.60;;;;;;5016343;28;20536;-46
2023/04/09 07:54:27;;;;;;;22.27;12.93;;;12.60;53.60;;;;;;5016802;28;20442;-48
2023/04/09 07:56:56;;;;;;;20.85;12.43;;;12.60;53.70;;;;;;5016050;28;20061;-46
2023/04/09 07:59:24;;;;;;;21.95;13.73;;;12.60;53.70;;;;;;5019608;28;20049;-48
2023/04/09 08:01:51;;;;;;;23.25;13.52;;;12.70;53.80;;;;;;5020547;28;20523;-45
2023/04/09 08:04:18;;;;;;;21.77;13.88;;;12.80;53.80;;;;;;5017123;28;20053;-45
2023/04/09 08:06:49;;;;;;;21.77;13.20;;;12.80;53.60;;;;;;5016733;28;20057;-43
2023/04/09 08:09:16;;;;;;;22.35;14.25;;;12.80;53.40;;;;;;5017246;28;20049;-46
2023/04/09 08:11:45;;;;;;;23.60;14.75;;;12.90;53.50;;;;;;5016169;28;20052;-48
2023/04/09 08:14:14;;;;;;;25.95;15.60;;;12.90;53.50;;;;;;5016794;28;20061;-46
2023/04/09 08:16:43;;;;;;;25.83;15.18;;;12.90;53.50;;;;;;5017117;28;20060;-48
2023/04/09 08:19:11;;;;;;;35.95;19.20;;;13.00;53.40;;;;;;5018716;28;20053;-46
2023/04/09 08:21:39;;;;;;;31.40;17.75;;;13.00;53.30;;;;;;5017730;28;20405;-48
2023/04/09 08:24:06;;;;;;;23.25;14.02;;;13.00;53.20;;;;;;5022750;28;20049;-43
2023/04/09 08:26:34;;;;;;;21.25;12.63;;;13.10;53.10;;;;;;5021437;28;21479;-45
2023/04/09 08:29:01;;;;;;;32.30;14.63;;;13.10;52.80;;;;;;5020025;28;20572;-47
2023/04/09 08:31:30;;;;;;;23.33;14.32;;;13.10;52.60;;;;;;5021872;28;20057;-46
2023/04/09 08:33:57;;;;;;;21.50;14.38;;;13.20;52.60;;;;;;5014191;28;20393;-45
2023/04/09 08:36:25;;;;;;;21.05;13.38;;;13.20;52.50;;;;;;5022184;28;20072;-47
2023/04/09 08:38:54;;;;;;;25.52;14.68;;;13.20;52.40;;;;;;5024985;28;20057;-47
2023/04/09 08:41:24;;;;;;;22.95;13.88;;;13.30;52.30;;;;;;5019497;28;20054;-46
2023/04/09 08:43:52;;;;;;;25.63;14.10;;;13.30;52.30;;;;;;5020539;28;20064;-46
2023/04/09 08:46:19;;;;;;;21.35;13.73;;;13.30;52.40;;;;;;5019410;28;20056;-47
2023/04/09 08:48:49;;;;;;;19.25;13.30;;;13.40;52.50;;;;;;5023601;28;20049;-47
2023/04/09 08:51:17;;;;;;;21.52;13.88;;;13.40;52.40;;;;;;5015118;28;20057;-47
2023/04/09 08:53:46;;;;;;;18.88;12.32;;;13.40;52.40;;;;;;5020425;28;20060;-46
2023/04/09 08:56:14;;;;;;;21.98;13.57;;;13.50;52.50;;;;;;5019224;28;20054;-45
2023/04/09 08:58:46;;;;;;;33.47;19.20;;;13.50;52.60;;;;;;5019355;28;20053;-45
2023/04/09 09:01:21;;;;;;;35.53;19.38;;;13.60;53.00;;;;;;5021025;28;20045;-47
2023/04/09 09:04:00;;;;;;;24.75;14.60;;;13.60;52.10;;;;;;5018049;28;20045;-47
2023/04/09 09:06:31;;;;;;;20.45;13.27;;;13.70;52.00;;;;;;5020033;28;20409;-47
2023/04/09 09:09:06;;;;;;;20.98;13.52;;;13.70;51.90;;;;;;5020775;28;20492;-45
2023/04/09 09:11:35;;;;;;;17.83;11.93;;;13.80;51.70;;;;;;5020056;28;20066;-47
2023/04/09 09:14:03;;;;;;;20.13;12.50;;;13.80;51.80;;;;;;5017138;28;20049;-48
2023/04/09 09:16:33;;;;;;;18.08;12.38;;;13.90;51.70;;;;;;5019885;28;20053;-44
2023/04/09 09:19:03;;;;;;;23.45;13.02;;;13.90;51.50;;;;;;5019002;28;20049;-46
2023/04/09 09:21:30;;;;;;;19.75;12.90;;;14.00;51.60;;;;;;5018630;28;20072;-47
2023/04/09 09:23:58;;;;;;;17.52;11.45;;;14.00;51.20;;;;;;5018995;28;20053;-48
2023/04/09 09:26:27;;;;;;;20.55;12.77;;;14.10;51.00;;;;;;5017451;28;20065;-46
2023/04/09 09:28:57;;;;;;;19.35;12.63;;;14.10;50.60;;;;;;5020773;28;20076;-44
2023/04/09 09:31:25;;;;;;;18.48;10.55;;;14.20;50.50;;;;;;5018449;28;20485;-45
2023/04/09 09:33:52;;;;;;;16.42;11.18;;;14.20;50.40;;;;;;5020497;28;20374;-45
2023/04/09 09:36:34;;;;;;;17.08;10.57;;;14.30;50.20;;;;;;5022400;28;20531;-45
2023/04/09 09:39:08;;;;;;;16.77;11.45;;;14.30;50.00;;;;;;5018888;28;20064;-48
2023/04/09 09:41:36;;;;;;;16.13;10.30;;;14.40;50.10;;;;;;5019611;28;20060;-49
2023/04/09 09:44:05;;;;;;;25.35;12.77;;;14.40;50.10;;;;;;5019194;28;20060;-46
2023/04/09 09:46:35;;;;;;;23.05;13.35;;;14.50;50.00;;;;;;5021195;28;20642;-47
2023/04/09 09:49:03;;;;;;;22.67;13.02;;;14.50;49.80;;;;;;5016806;28;20046;-50
2023/04/09 09:51:35;;;;;;;15.68;10.05;;;14.60;50.10;;;;;;5014881;28;20060;-48
2023/04/09 09:54:03;;;;;;;18.45;10.35;;;14.60;49.90;;;;;;5017957;28;20393;-49
2023/04/09 09:56:32;;;;;;;15.85;10.70;;;14.70;49.70;;;;;;5017667;28;21112;-44
2023/04/09 09:59:06;;;;;;;16.58;10.68;;;14.70;49.30;;;;;;5018373;28;20504;-46
2023/04/09 10:01:34;;;;;;;17.17;9.85;;;14.70;48.80;;;;;;5015829;28;20060;-50
2023/04/09 10:04:03;;;;;;;15.25;9.98;;;14.70;48.80;;;;;;5016024;28;20076;-46
2023/04/09 10:06:34;;;;;;;18.50;10.40;;;14.70;48.80;;;;;;5017696;28;20586;-47
2023/04/09 10:09:05;;;;;;;17.70;11.48;;;14.70;48.40;;;;;;5020253;28;20053;-48
2023/04/09 10:11:35;;;;;;;18.60;10.50;;;14.70;47.80;;;;;;5021007;28;20049;-50
2023/04/09 10:14:04;;;;;;;15.02;9.43;;;14.70;47.90;;;;;;5019432;28;20053;-45
2023/04/09 10:16:31;;;;;;;14.32;9.07;;;14.80;48.10;;;;;;5018342;28;20409;-46
2023/04/09 10:19:00;;;;;;;13.85;9.15;;;14.80;48.20;;;;;;5017743;28;20057;-45
2023/04/09 10:21:38;;;;;;;16.88;10.13;;;14.80;47.90;;;;;;5020631;28;20053;-48
2023/04/09 10:24:06;;;;;;;15.95;9.02;;;14.80;48.10;;;;;;5018102;28;20052;-47
2023/04/09 10:26:35;;;;;;;14.07;8.73;;;14.80;48.20;;;;;;5018326;28;20057;-49
2023/04/09 10:29:10;;;;;;;15.02;8.90;;;14.80;48.10;;;;;;5020631;28;20053;-46
2023/04/09 10:31:51;;;;;;;15.98;8.48;;;14.80;47.70;;;;;;5017614;28;20064;-49
2023/04/09 10:34:20;;;;;;;11.75;7.95;;;14.90;47.40;;;;;;5020066;28;20583;-44
2023/04/09 10:36:53;;;;;;;13.65;8.05;;;14.90;47.40;;;;;;5016794;28;20060;-46
2023/04/09 10:39:20;;;;;;;13.02;7.43;;;14.90;47.00;;;;;;5019473;28;20045;-46
2023/04/09 10:41:49;;;;;;;12.15;8.00;;;14.90;47.20;;;;;;5018385;28;20049;-43
2023/04/09 10:44:23;;;;;;;12.68;8.20;;;14.90;47.10;;;;;;5020515;28;20049;-46
2023/04/09 10:46:53;;;;;;;11.18;7.72;;;14.90;46.70;;;;;;5021030;28;20061;-46
2023/04/09 10:49:22;;;;;;;10.90;7.75;;;15.00;47.10;;;;;;5015941;28;20056;-48
2023/04/09 10:51:53;;;;;;;11.02;7.32;;;15.00;47.30;;;;;;5020011;28;20485;-47
2023/04/09 10:54:53;;;;;;;30.70;14.75;;;15.10;47.20;;;;;;5020957;28;20052;-47
2023/04/09 10:57:23;;;;;;;39.53;19.63;;;15.10;47.00;;;;;;4958354;28;20434;-48
2023/04/09 10:59:52;;;;;;;17.95;9.88;;;15.20;47.10;;;;;;4956218;28;20512;-46
2023/04/09 11:02:54;;;;;;;19.65;9.50;;;15.20;47.10;;;;;;4988511;28;20060;-45
2023/04/09 11:05:29;;;;;;;30.15;12.68;;;15.20;47.00;;;;;;5017016;28;20053;-46
2023/04/09 11:08:03;;;;;;;15.07;9.02;;;15.30;47.20;;;;;;5019153;28;20136;-47
2023/04/09 11:10:31;;;;;;;;;;;15.30;47.20;;;;;;5019251;28;20045;-44
2023/04/09 11:12:58;;;;;;;12.18;7.72;;;15.30;47.20;;;;;;5019406;28;20399;-45
2023/04/09 11:15:25;;;;;;;13.32;8.32;;;15.40;47.20;;;;;;5019150;28;20072;-46
2023/04/09 11:17:53;;;;;;;14.20;8.27;;;15.40;47.00;;;;;;5016671;28;20489;-45
2023/04/09 11:20:22;;;;;;;11.20;7.60;;;15.40;46.70;;;;;;5011252;28;20060;-47
2023/04/09 11:22:49;;;;;;;12.30;8.27;;;15.50;46.40;;;;;;5018644;28;20493;-49
2023/04/09 11:25:22;;;;;;;12.13;7.93;;;15.50;46.50;;;;;;5017604;28;20053;-44
2023/04/09 11:27:50;;;;;;;12.20;8.05;;;15.60;46.30;;;;;;5017859;28;20050;-44
2023/04/09 11:30:17;;;;;;;10.93;7.68;;;15.60;46.10;;;;;;5019386;28;20060;-49
2023/04/09 11:32:44;;;;;;;9.27;6.88;;;15.60;46.10;;;;;;5019947;28;20701;-46
2023/04/09 11:35:13;;;;;;;10.32;7.10;;;15.70;46.20;;;;;;5017806;28;20049;-45
2023/04/09 11:37:41;;;;;;;10.95;7.28;;;15.70;46.10;;;;;;5019426;28;20060;-47
2023/04/09 11:40:16;;;;;;;9.15;6.97;;;15.80;46.00;;;;;;5019892;28;20425;-47
2023/04/09 11:42:47;;;;;;;9.38;6.45;;;15.80;45.70;;;;;;5018628;28;20053;-48
2023/04/09 11:45:15;;;;;;;9.02;6.68;;;15.80;45.80;;;;;;5017119;28;20060;-46
2023/04/09 11:47:45;;;;;;;11.82;8.07;;;15.90;46.00;;;;;;5018664;28;20442;-44
2023/04/09 11:50:13;;;;;;;11.50;7.55;;;15.90;45.80;;;;;;5014855;28;20394;-45
2023/04/09 11:52:41;;;;;;;12.38;7.10;;;16.00;45.60;;;;;;5017286;28;20049;-44
2023/04/09 11:55:09;;;;;;;9.93;6.40;;;16.00;45.70;;;;;;5016276;28;20046;-47
2023/04/09 11:57:41;;;;;;;10.40;6.78;;;16.00;45.20;;;;;;5019317;28;20053;-49
2023/04/09 12:00:13;;;;;;;10.25;6.72;;;16.00;45.00;;;;;;5019542;28;20076;-46
2023/04/09 12:02:42;;;;;;;8.77;6.32;;;16.10;45.00;;;;;;5019700;28;20057;-45
2023/04/09 12:05:12;;;;;;;11.05;6.40;;;16.10;45.10;;;;;;5016755;28;20488;-47
2023/04/09 12:07:40;;;;;;;7.43;5.90;;;16.10;45.30;;;;;;5017924;28;20054;-46
2023/04/09 12:10:10;;;;;;;10.38;6.30;;;16.20;45.30;;;;;;5017828;28;20064;-47
2023/04/09 12:12:44;;;;;;;9.57;6.35;;;16.20;45.20;;;;;;5020438;28;20053;-46
2023/04/09 12:15:20;;;;;;;11.10;6.63;;;16.20;44.30;;;;;;5019280;28;20484;-47
2023/04/09 12:17:49;;;;;;;10.93;7.00;;;16.20;44.00;;;;;;5019037;28;20057;-45
2023/04/09 12:20:27;;;;;;;9.60;7.30;;;16.30;44.60;;;;;;5015399;28;20063;-47
2023/04/09 12:22:54;;;;;;;13.55;6.97;;;16.30;44.10;;;;;;5018077;28;20433;-45
2023/04/09 12:25:22;;;;;;;9.70;6.57;;;16.30;44.10;;;;;;5016620;28;20057;-47
2023/04/09 12:27:49;;;;;;;9.30;5.82;;;16.30;44.00;;;;;;5017911;28;20062;-46
2023/04/09 12:30:18;;;;;;;10.32;6.40;;;16.30;44.10;;;;;;5016296;28;20505;-44
2023/04/09 12:32:46;;;;;;;9.95;6.45;;;16.40;44.20;;;;;;5019147;28;20061;-46
2023/04/09 12:35:14;;;;;;;9.35;6.35;;;16.40;44.30;;;;;;5014242;28;20049;-44
2023/04/09 12:37:42;;;;;;;7.75;5.93;;;16.40;43.90;;;;;;5016709;28;20061;-47
2023/04/09 12:40:11;;;;;;;9.32;6.32;;;16.40;44.70;;;;;;5016619;28;20060;-48
2023/04/09 12:42:39;;;;;;;9.90;6.75;;;16.40;44.30;;;;;;5015758;28;20058;-45
2023/04/09 12:45:07;;;;;;;12.45;6.82;;;16.40;44.10;;;;;;5013648;28;20489;-46
2023/04/09 12:47:36;;;;;;;9.25;6.63;;;16.40;43.80;;;;;;5018212;28;20061;-43